createdAt,value
2018-09-20T00:00:21.160Z,16.42
2018-09-20T00:02:55.647Z,16.35
2018-09-20T00:05:30.004Z,16.27
2018-09-20T00:08:04.484Z,16.14
2018-09-20T00:10:39.140Z,16.25
2018-09-20T00:13:13.630Z,16.12
2018-09-20T00:15:48.129Z,16.23
2018-09-20T00:18:22.591Z,16.19
2018-09-20T00:20:57.203Z,16.22
2018-09-20T00:23:32.275Z,16.17
2018-09-20T00:26:07.251Z,16.20
2018-09-20T00:28:41.656Z,16.16
2018-09-20T00:31:15.968Z,16.18
2018-09-20T00:33:50.356Z,16.08
2018-09-20T00:36:24.944Z,16.05
2018-09-20T00:38:59.903Z,16.04
2018-09-20T00:41:34.630Z,15.84
2018-09-20T00:44:10.270Z,15.96
2018-09-20T00:46:45.159Z,16.05
2018-09-20T00:49:19.600Z,15.99
2018-09-20T00:51:54.693Z,15.99
2018-09-20T00:54:29.153Z,15.92
2018-09-20T00:57:03.839Z,15.97
2018-09-20T00:59:38.471Z,15.98
2018-09-20T01:02:13.928Z,15.86
2018-09-20T01:04:48.460Z,15.83
2018-09-20T01:07:22.991Z,15.77
2018-09-20T01:09:57.583Z,15.78
2018-09-20T01:12:31.883Z,15.59
2018-09-20T01:15:07.243Z,15.60
2018-09-20T01:17:41.938Z,15.56
2018-09-20T01:20:17.189Z,15.61
2018-09-20T01:22:51.900Z,15.48
2018-09-20T01:25:26.692Z,15.55
2018-09-20T01:28:01.229Z,15.61
2018-09-20T01:30:35.959Z,15.60
2018-09-20T01:33:10.534Z,15.54
2018-09-20T01:35:45.371Z,15.51
2018-09-20T01:38:20.131Z,15.50
2018-09-20T01:40:54.608Z,15.50
2018-09-20T01:43:29.082Z,15.45
2018-09-20T01:46:03.507Z,15.38
2018-09-20T01:48:39.100Z,15.35
2018-09-20T01:51:13.677Z,15.37
2018-09-20T01:53:48.379Z,15.30
2018-09-20T01:56:22.819Z,15.26
2018-09-20T01:58:57.224Z,15.04
2018-09-20T02:01:31.753Z,15.01
2018-09-20T02:04:06.180Z,14.99
2018-09-20T02:06:40.651Z,14.94
2018-09-20T02:09:15.331Z,15.16
2018-09-20T02:11:49.675Z,15.27
2018-09-20T02:14:24.128Z,15.26
2018-09-20T02:16:58.775Z,15.22
2018-09-20T02:19:33.779Z,15.18
2018-09-20T02:22:08.344Z,15.16
2018-09-20T02:24:42.830Z,15.15
2018-09-20T02:27:18.227Z,15.10
2018-09-20T02:29:52.587Z,15.12
2018-09-20T02:32:27.150Z,15.12
2018-09-20T02:35:02.083Z,15.08
2018-09-20T02:37:36.722Z,15.05
2018-09-20T02:40:11.296Z,15.03
2018-09-20T02:42:45.807Z,14.99
2018-09-20T02:45:20.600Z,14.98
2018-09-20T02:47:55.120Z,15.00
2018-09-20T02:50:29.493Z,14.99
2018-09-20T02:53:04.355Z,14.96
2018-09-20T02:55:38.712Z,14.95
2018-09-20T02:58:13.072Z,14.97
2018-09-20T03:00:47.955Z,14.91
2018-09-20T03:03:22.471Z,14.89
2018-09-20T03:05:56.743Z,14.80
2018-09-20T03:08:31.798Z,14.73
2018-09-20T03:11:06.228Z,14.66
2018-09-20T03:13:40.671Z,14.62
2018-09-20T03:16:15.507Z,14.62
2018-09-20T03:18:50.555Z,14.54
2018-09-20T03:21:24.836Z,14.46
2018-09-20T03:23:59.568Z,14.42
2018-09-20T03:26:33.993Z,14.39
2018-09-20T03:29:08.881Z,14.41
2018-09-20T03:31:43.596Z,14.35
2018-09-20T03:34:18.576Z,14.31
2018-09-20T03:36:53.310Z,14.25
2018-09-20T03:39:27.670Z,14.21
2018-09-20T03:42:02.475Z,14.15
2018-09-20T03:44:37.255Z,14.16
2018-09-20T03:47:11.687Z,14.13
2018-09-20T03:49:46.361Z,14.10
2018-09-20T03:52:20.996Z,14.08
2018-09-20T03:54:55.289Z,14.08
2018-09-20T03:57:29.979Z,14.02
2018-09-20T04:00:04.640Z,14.00
2018-09-20T04:02:39.300Z,14.01
2018-09-20T04:05:14.285Z,13.95
2018-09-20T04:07:49.412Z,13.96
2018-09-20T04:10:24.423Z,13.99
2018-09-20T04:12:59.327Z,13.97
2018-09-20T04:15:33.755Z,14.00
2018-09-20T04:18:08.277Z,14.03
2018-09-20T04:20:43.226Z,14.03
2018-09-20T04:23:18.024Z,13.99
2018-09-20T04:25:52.635Z,13.97
2018-09-20T04:28:27.236Z,13.95
2018-09-20T04:31:02.068Z,13.94
2018-09-20T04:33:36.765Z,13.89
2018-09-20T04:36:11.368Z,13.85
2018-09-20T04:38:46.165Z,13.86
2018-09-20T04:41:20.834Z,13.86
2018-09-20T04:43:55.312Z,13.85
2018-09-20T04:46:30.132Z,13.88
2018-09-20T04:49:04.859Z,13.90
2018-09-20T04:51:39.241Z,13.89
2018-09-20T04:54:13.984Z,13.91
2018-09-20T04:56:48.627Z,13.90
2018-09-20T04:59:23.484Z,13.90
2018-09-20T05:01:58.819Z,13.87
2018-09-20T05:04:33.362Z,13.85
2018-09-20T05:07:07.885Z,13.87
2018-09-20T05:09:43.239Z,13.92
2018-09-20T05:12:17.553Z,13.94
2018-09-20T05:14:51.990Z,13.94
2018-09-20T05:17:26.611Z,13.90
2018-09-20T05:20:01.168Z,13.85
2018-09-20T05:22:36.007Z,13.80
2018-09-20T05:25:13.852Z,13.75
2018-09-20T05:27:52.208Z,13.78
2018-09-20T05:30:26.695Z,13.79
2018-09-20T05:33:01.288Z,13.82
2018-09-20T05:35:36.245Z,13.80
2018-09-20T05:38:11.832Z,13.81
2018-09-20T05:40:46.649Z,13.81
2018-09-20T05:43:21.479Z,13.80
2018-09-20T05:45:56.113Z,13.83
2018-09-20T05:48:30.753Z,13.86
2018-09-20T05:51:05.512Z,13.89
2018-09-20T05:53:40.065Z,13.94
2018-09-20T05:56:14.939Z,13.99
2018-09-20T05:58:52.472Z,14.05
2018-09-20T06:01:26.883Z,14.13
2018-09-20T06:04:01.588Z,14.18
2018-09-20T06:06:37.364Z,14.26
2018-09-20T06:09:12.237Z,14.34
2018-09-20T06:11:47.444Z,14.43
2018-09-20T06:14:22.591Z,14.50
2018-09-20T06:16:57.184Z,14.59
2018-09-20T06:19:31.623Z,14.67
2018-09-20T06:22:06.580Z,14.74
2018-09-20T06:24:41.167Z,14.87
2018-09-20T06:27:15.616Z,14.95
2018-09-20T06:29:50.325Z,15.01
2018-09-20T06:32:25.025Z,15.09
2018-09-20T06:34:59.609Z,15.18
2018-09-20T06:37:34.333Z,15.26
2018-09-20T06:40:09.745Z,15.35
2018-09-20T06:42:44.176Z,15.42
2018-09-20T06:45:18.995Z,15.51
2018-09-20T06:47:53.395Z,15.58
2018-09-20T06:50:28.895Z,15.65
2018-09-20T06:53:03.719Z,15.77
2018-09-20T06:55:39.238Z,15.89
2018-09-20T06:58:13.536Z,15.95
2018-09-20T07:00:48.080Z,16.04
2018-09-20T07:03:22.776Z,16.17
2018-09-20T07:05:57.360Z,16.21
2018-09-20T07:08:31.988Z,16.35
2018-09-20T07:11:07.080Z,16.51
2018-09-20T07:13:42.070Z,16.55
2018-09-20T07:16:17.481Z,16.59
2018-09-20T07:18:52.423Z,16.68
2018-09-20T07:21:26.731Z,16.77
2018-09-20T07:24:02.859Z,16.97
2018-09-20T07:26:37.297Z,17.06
2018-09-20T07:29:12.723Z,17.17
2018-09-20T07:31:47.363Z,17.32
2018-09-20T07:34:21.755Z,17.48
2018-09-20T07:36:56.204Z,17.52
2018-09-20T07:39:31.217Z,17.64
2018-09-20T07:42:05.856Z,17.78
2018-09-20T07:44:40.515Z,17.89
2018-09-20T07:47:15.156Z,18.04
2018-09-20T07:49:50.016Z,18.20
2018-09-20T07:52:24.343Z,18.40
2018-09-20T07:54:58.717Z,18.57
2018-09-20T07:57:33.025Z,18.77
2018-09-20T08:00:07.324Z,19.04
2018-09-20T08:02:41.640Z,19.32
2018-09-20T08:05:16.957Z,19.55
2018-09-20T08:07:51.695Z,19.72
2018-09-20T08:10:26.469Z,19.92
2018-09-20T08:13:01.014Z,20.21
2018-09-20T08:15:36.308Z,20.40
2018-09-20T08:18:11.264Z,20.52
2018-09-20T08:20:49.814Z,20.72
2018-09-20T08:23:24.496Z,20.98
2018-09-20T08:25:59.283Z,21.19
2018-09-20T08:28:33.879Z,21.46
2018-09-20T08:31:08.609Z,21.87
2018-09-20T08:33:43.191Z,22.02
2018-09-20T08:36:17.579Z,22.08
2018-09-20T08:38:53.520Z,22.34
2018-09-20T08:41:27.829Z,22.58
2018-09-20T08:44:02.801Z,22.77
2018-09-20T08:46:37.157Z,23.07
2018-09-20T08:49:11.765Z,23.22
2018-09-20T08:51:46.404Z,23.50
2018-09-20T08:54:21.026Z,23.37
2018-09-20T08:56:55.594Z,23.64
2018-09-20T08:59:30.143Z,23.78
2018-09-20T09:02:05.156Z,23.98
2018-09-20T09:04:40.092Z,24.20
2018-09-20T09:07:15.192Z,24.37
2018-09-20T09:09:51.261Z,24.39
2018-09-20T09:12:25.986Z,24.54
2018-09-20T09:15:00.832Z,24.62
2018-09-20T09:17:35.270Z,24.76
2018-09-20T09:20:10.289Z,25.01
2018-09-20T09:22:45.124Z,24.86
2018-09-20T09:25:19.523Z,25.26
2018-09-20T09:27:54.242Z,25.39
2018-09-20T09:30:28.773Z,25.34
2018-09-20T09:33:04.039Z,25.60
2018-09-20T09:35:38.725Z,25.60
2018-09-20T09:38:13.428Z,25.69
2018-09-20T09:40:48.661Z,26.05
2018-09-20T09:43:23.566Z,26.33
2018-09-20T09:45:58.088Z,26.12
2018-09-20T09:48:32.536Z,26.49
2018-09-20T09:51:07.591Z,26.53
2018-09-20T09:53:42.052Z,26.68
2018-09-20T09:56:16.504Z,26.86
2018-09-20T09:58:51.299Z,26.66
2018-09-20T10:01:26.112Z,26.86
2018-09-20T10:04:00.756Z,26.78
2018-09-20T10:06:35.186Z,26.70
2018-09-20T10:09:10.804Z,27.05
2018-09-20T10:11:45.793Z,27.31
2018-09-20T10:14:20.528Z,27.31
2018-09-20T10:16:55.335Z,27.37
2018-09-20T10:19:29.687Z,27.63
2018-09-20T10:22:04.739Z,27.55
2018-09-20T10:24:39.695Z,27.25
2018-09-20T10:27:14.323Z,27.49
2018-09-20T10:29:48.824Z,27.74
2018-09-20T10:32:23.700Z,27.89
2018-09-20T10:34:58.376Z,28.07
2018-09-20T10:37:34.158Z,28.28
2018-09-20T10:40:09.174Z,28.47
2018-09-20T10:42:43.632Z,28.63
2018-09-20T10:45:18.413Z,28.54
2018-09-20T10:47:53.092Z,28.44
2018-09-20T10:50:27.772Z,28.40
2018-09-20T10:53:02.624Z,28.09
2018-09-20T10:55:37.079Z,28.52
2018-09-20T10:58:11.547Z,28.74
2018-09-20T11:00:46.030Z,28.55
2018-09-20T11:03:20.806Z,28.70
2018-09-20T11:05:55.414Z,28.62
2018-09-20T11:08:30.183Z,28.83
2018-09-20T11:11:05.295Z,28.89
2018-09-20T11:13:39.773Z,28.44
2018-09-20T11:16:14.389Z,28.77
2018-09-20T11:18:49.592Z,29.04
2018-09-20T11:21:24.392Z,29.16
2018-09-20T11:23:59.219Z,29.23
2018-09-20T11:26:34.060Z,29.42
2018-09-20T11:29:08.764Z,29.38
2018-09-20T11:31:43.356Z,28.53
2018-09-20T11:34:17.895Z,29.10
2018-09-20T11:36:52.388Z,29.25
2018-09-20T11:39:27.160Z,29.40
2018-09-20T11:42:02.099Z,29.44
2018-09-20T11:44:36.791Z,29.35
2018-09-20T11:47:11.205Z,29.27
2018-09-20T11:49:45.920Z,29.49
2018-09-20T11:52:20.391Z,29.26
2018-09-20T11:54:55.275Z,29.38
2018-09-20T11:57:29.556Z,29.54
2018-09-20T12:00:04.417Z,29.60
2018-09-20T12:02:39.308Z,29.44
2018-09-20T12:05:13.680Z,29.41
2018-09-20T12:07:48.476Z,29.59
2018-09-20T12:10:22.940Z,29.73
2018-09-20T12:12:57.392Z,29.93
2018-09-20T12:15:32.884Z,29.98
2018-09-20T12:18:07.357Z,29.93
2018-09-20T12:20:42.013Z,29.89
2018-09-20T12:23:16.705Z,30.09
2018-09-20T12:25:51.549Z,30.14
2018-09-20T12:28:26.943Z,30.18
2018-09-20T12:31:01.225Z,30.27
2018-09-20T12:33:36.072Z,30.49
2018-09-20T12:36:11.212Z,30.54
2018-09-20T12:38:46.262Z,30.12
2018-09-20T12:41:21.036Z,29.89
2018-09-20T12:43:56.324Z,29.89
2018-09-20T12:46:31.724Z,29.96
2018-09-20T12:49:06.011Z,29.79
2018-09-20T12:51:40.513Z,29.93
2018-09-20T12:54:15.344Z,29.98
2018-09-20T12:56:49.960Z,30.02
2018-09-20T12:59:24.775Z,30.09
2018-09-20T13:01:59.475Z,29.95
2018-09-20T13:04:34.239Z,29.90
2018-09-20T13:07:09.285Z,29.82
2018-09-20T13:09:43.803Z,29.66
2018-09-20T13:12:18.604Z,29.66
2018-09-20T13:14:53.130Z,29.70
2018-09-20T13:17:28.075Z,29.46
2018-09-20T13:20:03.194Z,29.56
2018-09-20T13:22:38.191Z,29.62
2018-09-20T13:25:12.608Z,29.70
2018-09-20T13:27:47.316Z,29.88
2018-09-20T13:30:21.792Z,29.60
2018-09-20T13:32:56.231Z,29.25
2018-09-20T13:35:30.920Z,29.06
2018-09-20T13:38:06.315Z,28.78
2018-09-20T13:40:41.300Z,28.51
2018-09-20T13:43:16.588Z,28.13
2018-09-20T13:45:54.160Z,27.99
2018-09-20T13:48:29.007Z,27.85
2018-09-20T13:51:03.639Z,27.87
2018-09-20T13:53:38.208Z,28.08
2018-09-20T13:56:12.738Z,28.27
2018-09-20T13:58:47.871Z,28.53
2018-09-20T14:01:22.822Z,28.70
2018-09-20T14:03:57.275Z,28.89
2018-09-20T14:06:31.881Z,28.87
2018-09-20T14:09:39.855Z,29.14
2018-09-20T14:12:14.845Z,29.23
2018-09-20T14:14:49.533Z,29.31
2018-09-20T14:17:23.845Z,29.35
2018-09-20T14:19:58.564Z,29.23
2018-09-20T14:22:33.024Z,29.27
2018-09-20T14:25:07.355Z,29.23
2018-09-20T14:27:41.858Z,29.03
2018-09-20T14:30:16.287Z,28.89
2018-09-20T14:32:50.627Z,28.98
2018-09-20T14:35:25.384Z,28.92
2018-09-20T14:38:00.041Z,28.98
2018-09-20T14:40:34.776Z,28.85
2018-09-20T14:43:09.597Z,28.67
2018-09-20T14:45:44.724Z,28.54
2018-09-20T14:48:19.031Z,28.47
2018-09-20T14:50:53.936Z,28.47
2018-09-20T14:53:28.332Z,28.52
2018-09-20T14:56:02.716Z,28.51
2018-09-20T14:58:37.423Z,28.58
2018-09-20T15:01:12.072Z,28.70
2018-09-20T15:03:46.542Z,28.73
2018-09-20T15:06:21.093Z,28.78
2018-09-20T15:08:55.760Z,28.79
2018-09-20T15:11:30.684Z,28.71
2018-09-20T15:14:05.460Z,28.66
2018-09-20T15:16:39.899Z,28.51
2018-09-20T15:19:14.259Z,28.41
2018-09-20T15:21:48.754Z,28.31
2018-09-20T15:24:23.307Z,28.22
2018-09-20T15:27:00.873Z,28.15
2018-09-20T15:29:36.179Z,28.02
2018-09-20T15:32:10.693Z,27.89
2018-09-20T15:34:45.213Z,27.71
2018-09-20T15:37:20.268Z,27.59
2018-09-20T15:39:55.227Z,27.44
2018-09-20T15:42:30.950Z,27.34
2018-09-20T15:45:06.161Z,27.30
2018-09-20T15:47:41.284Z,27.20
2018-09-20T15:50:16.515Z,27.01
2018-09-20T15:52:50.992Z,26.98
2018-09-20T15:55:25.613Z,26.90
2018-09-20T15:57:59.987Z,26.76
2018-09-20T16:00:35.560Z,26.65
2018-09-20T16:03:10.366Z,26.64
2018-09-20T16:05:47.033Z,26.55
2018-09-20T16:08:21.864Z,26.38
2018-09-20T16:11:04.293Z,26.28
2018-09-20T16:13:39.155Z,26.12
2018-09-20T16:16:13.636Z,26.00
2018-09-20T16:18:48.566Z,25.88
2018-09-20T16:21:23.172Z,25.68
2018-09-20T16:23:57.685Z,25.54
2018-09-20T16:26:36.067Z,25.45
2018-09-20T16:29:52.811Z,25.26
2018-09-20T16:36:02.476Z,24.72
2018-09-20T16:38:48.594Z,24.51
2018-09-20T16:41:29.407Z,24.28
2018-09-20T16:44:04.377Z,24.05
2018-09-20T16:46:39.772Z,23.87
2018-09-20T16:49:15.052Z,23.72
2018-09-20T16:51:49.556Z,23.53
2018-09-20T16:54:24.383Z,23.36
2018-09-20T16:56:59.097Z,23.15
2018-09-20T16:59:33.808Z,22.98
2018-09-20T17:02:08.772Z,22.79
2018-09-20T17:04:43.199Z,22.63
2018-09-20T17:07:18.083Z,22.48
2018-09-20T17:09:52.745Z,22.35
2018-09-20T17:12:27.065Z,22.23
2018-09-20T17:15:02.176Z,22.06
2018-09-20T17:17:37.188Z,22.03
2018-09-20T17:20:11.665Z,21.98
2018-09-20T17:22:47.270Z,21.93
2018-09-20T17:25:22.267Z,21.84
2018-09-20T17:27:56.964Z,21.73
2018-09-20T17:30:31.765Z,21.70
2018-09-20T17:33:06.592Z,21.65
2018-09-20T17:35:41.388Z,21.57
2018-09-20T17:38:16.035Z,21.51
2018-09-20T17:40:57.632Z,21.38
2018-09-20T17:44:07.659Z,21.30
2018-09-20T17:46:42.244Z,21.20
2018-09-20T17:49:16.836Z,21.12
2018-09-20T17:51:51.906Z,21.05
2018-09-20T17:54:26.598Z,20.92
2018-09-20T17:57:02.568Z,20.89
2018-09-20T17:59:37.174Z,20.81
2018-09-20T18:02:11.895Z,20.74
2018-09-20T18:04:47.247Z,20.67
2018-09-20T18:07:21.718Z,20.63
2018-09-20T18:09:56.295Z,20.59
2018-09-20T18:12:31.320Z,20.49
2018-09-20T18:15:06.208Z,20.45
2018-09-20T18:17:40.845Z,20.42
2018-09-20T18:20:16.344Z,20.41
2018-09-20T18:22:50.684Z,20.32
2018-09-20T18:25:25.379Z,20.22
2018-09-20T18:27:59.776Z,20.20
2018-09-20T18:30:34.656Z,20.20
2018-09-20T18:33:09.633Z,20.21
2018-09-20T18:35:44.097Z,20.13
2018-09-20T18:38:19.171Z,20.15
2018-09-20T18:40:53.799Z,20.10
2018-09-20T18:43:28.271Z,20.07
2018-09-20T18:46:02.998Z,20.05
2018-09-20T18:48:37.916Z,19.93
2018-09-20T18:51:12.322Z,19.81
2018-09-20T18:53:46.641Z,19.80
2018-09-20T18:56:21.048Z,19.77
2018-09-20T18:58:55.711Z,19.75
2018-09-20T19:01:30.124Z,19.67
2018-09-20T19:04:04.563Z,19.57
2018-09-20T19:06:39.308Z,19.46
2018-09-20T19:09:13.737Z,19.38
2018-09-20T19:11:48.359Z,19.35
2018-09-20T19:14:22.844Z,19.31
2018-09-20T19:16:57.476Z,19.21
2018-09-20T19:19:31.843Z,19.13
2018-09-20T19:22:06.405Z,19.04
2018-09-20T19:24:41.073Z,18.95
2018-09-20T19:27:16.522Z,18.90
2018-09-20T19:29:51.028Z,18.87
2018-09-20T19:32:25.357Z,18.85
2018-09-20T19:35:00.156Z,18.84
2018-09-20T19:37:34.631Z,18.78
2018-09-20T19:40:09.800Z,18.71
2018-09-20T19:42:44.959Z,18.66
2018-09-20T19:45:19.260Z,18.56
2018-09-20T19:47:53.776Z,18.51
2018-09-20T19:50:28.297Z,18.56
2018-09-20T19:53:02.656Z,18.45
2018-09-20T19:55:37.440Z,18.38
2018-09-20T19:58:11.881Z,18.33
2018-09-20T20:00:46.496Z,18.27
2018-09-20T20:03:20.881Z,18.20
2018-09-20T20:05:58.459Z,18.17
2018-09-20T20:08:35.876Z,18.11
2018-09-20T20:11:10.500Z,18.17
2018-09-20T20:13:45.192Z,18.10
2018-09-20T20:16:19.834Z,18.04
2018-09-20T20:18:54.519Z,17.99
2018-09-20T20:21:29.614Z,17.91
2018-09-20T20:24:04.548Z,17.84
2018-09-20T20:26:39.303Z,17.79
2018-09-20T20:29:13.626Z,17.75
2018-09-20T20:31:48.462Z,17.68
2018-09-20T20:34:23.124Z,17.61
2018-09-20T20:36:57.591Z,17.56
2018-09-20T20:39:32.062Z,17.50
2018-09-20T20:42:06.700Z,17.42
2018-09-20T20:44:41.201Z,17.37
2018-09-20T20:47:15.533Z,17.31
2018-09-20T20:49:49.927Z,17.26
2018-09-20T20:52:24.248Z,17.20
2018-09-20T20:54:58.529Z,17.15
2018-09-20T20:57:33.176Z,17.12
2018-09-20T21:00:07.729Z,17.08
2018-09-20T21:02:42.498Z,17.10
2018-09-20T21:05:17.076Z,17.12
2018-09-20T21:07:52.320Z,17.07
2018-09-20T21:10:27.640Z,17.04
2018-09-20T21:13:02.066Z,16.99
2018-09-20T21:15:36.631Z,16.98
2018-09-20T21:18:10.913Z,16.94
2018-09-20T21:20:45.340Z,16.88
2018-09-20T21:23:19.960Z,16.84
2018-09-20T21:25:54.527Z,16.82
2018-09-20T21:28:28.956Z,16.86
2018-09-20T21:31:03.838Z,16.82
2018-09-20T21:33:38.197Z,16.78
2018-09-20T21:36:13.000Z,16.84
2018-09-20T21:38:47.841Z,16.83
2018-09-20T21:41:22.176Z,16.73
2018-09-20T21:43:56.680Z,16.65
2018-09-20T21:46:31.245Z,16.59
2018-09-20T21:49:06.287Z,16.57
2018-09-20T21:51:41.152Z,16.53
2018-09-20T21:54:15.939Z,16.52
2018-09-20T21:56:50.627Z,16.55
2018-09-20T21:59:25.057Z,16.58
2018-09-20T22:02:03.363Z,16.57
2018-09-20T22:04:38.017Z,16.53
2018-09-20T22:07:12.998Z,16.48
2018-09-20T22:09:47.388Z,16.48
2018-09-20T22:12:22.148Z,16.52
2018-09-20T22:14:57.048Z,16.49
2018-09-20T22:17:31.608Z,16.52
2018-09-20T22:20:06.449Z,16.56
2018-09-20T22:22:40.781Z,16.52
2018-09-20T22:25:15.817Z,16.54
2018-09-20T22:27:50.513Z,16.52
2018-09-20T22:30:25.104Z,16.51
2018-09-20T22:32:59.427Z,16.40
2018-09-20T22:35:33.860Z,16.33
2018-09-20T22:38:08.558Z,16.29
2018-09-20T22:40:43.084Z,16.30
2018-09-20T22:43:17.783Z,16.30
2018-09-20T22:45:52.362Z,16.25
2018-09-20T22:48:26.799Z,16.23
2018-09-20T22:51:01.212Z,16.20
2018-09-20T22:53:35.628Z,16.13
2018-09-20T22:56:09.967Z,16.09
2018-09-20T22:58:44.744Z,16.13
2018-09-20T23:01:19.616Z,16.11
2018-09-20T23:03:54.436Z,16.09
2018-09-20T23:06:29.572Z,16.11
2018-09-20T23:09:05.632Z,16.07
2018-09-20T23:11:40.766Z,16.12
2018-09-20T23:14:15.072Z,16.11
2018-09-20T23:16:49.351Z,16.07
2018-09-20T23:19:24.271Z,16.09
2018-09-20T23:21:58.825Z,16.01
2018-09-20T23:24:33.273Z,16.01
2018-09-20T23:27:08.039Z,16.00
2018-09-20T23:29:42.492Z,15.93
2018-09-20T23:32:16.817Z,16.02
2018-09-20T23:34:51.722Z,16.13
2018-09-20T23:37:26.348Z,16.08
2018-09-20T23:40:01.024Z,16.09
2018-09-20T23:42:35.742Z,16.06
2018-09-20T23:45:10.173Z,16.00
2018-09-20T23:47:44.684Z,15.98
2018-09-20T23:50:19.531Z,15.86
2018-09-20T23:52:54.253Z,15.80
2018-09-20T23:55:29.080Z,15.77
2018-09-20T23:58:04.367Z,15.70
